createdAt,value
2023-11-20T00:00:13.164Z,20.30
2023-11-20T00:01:13.334Z,19.93
2023-11-20T00:02:13.158Z,19.55
2023-11-20T00:03:13.281Z,19.70
2023-11-20T00:04:13.164Z,19.55
2023-11-20T00:05:13.252Z,19.50
2023-11-20T00:06:13.073Z,19.70
2023-11-20T00:07:13.079Z,19.93
2023-11-20T00:08:13.101Z,20.12
2023-11-20T00:09:13.006Z,20.08
2023-11-20T00:10:13.002Z,20.02
2023-11-20T00:11:13.001Z,20.18
2023-11-20T00:12:12.988Z,20.03
2023-11-20T00:13:13.007Z,19.84
2023-11-20T00:14:12.969Z,20.02
2023-11-20T00:15:12.963Z,20.10
2023-11-20T00:16:13.393Z,19.86
2023-11-20T00:17:12.885Z,19.51
2023-11-20T00:18:12.959Z,19.68
2023-11-20T00:19:13.014Z,19.91
2023-11-20T00:20:12.857Z,19.75
2023-11-20T00:21:12.909Z,19.84
2023-11-20T00:22:12.856Z,19.95
2023-11-20T00:23:12.816Z,19.78
2023-11-20T00:24:12.892Z,19.68
2023-11-20T00:25:12.865Z,19.80
2023-11-20T00:26:12.838Z,19.76
2023-11-20T00:27:12.808Z,19.88
2023-11-20T00:28:12.802Z,19.35
2023-11-20T00:29:12.788Z,19.40
2023-11-20T00:30:12.832Z,19.39
2023-11-20T00:31:12.782Z,19.42
2023-11-20T00:32:12.772Z,19.65
2023-11-20T00:33:12.883Z,19.51
2023-11-20T00:34:12.971Z,19.58
2023-11-20T00:35:12.671Z,19.48
2023-11-20T00:36:12.688Z,19.23
2023-11-20T00:37:12.632Z,19.29
2023-11-20T00:38:12.685Z,19.11
2023-11-20T00:39:12.598Z,19.10
2023-11-20T00:40:12.771Z,19.13
2023-11-20T00:41:12.569Z,19.08
2023-11-20T00:42:12.587Z,19.20
2023-11-20T00:43:12.591Z,18.73
2023-11-20T00:44:12.542Z,18.58
2023-11-20T00:45:12.622Z,18.57
2023-11-20T00:46:12.615Z,18.62
2023-11-20T00:47:12.510Z,18.61
2023-11-20T00:48:12.517Z,18.59
2023-11-20T00:49:12.543Z,18.37
2023-11-20T00:50:12.504Z,18.31
2023-11-20T00:51:12.424Z,18.44
2023-11-20T00:52:12.482Z,18.03
2023-11-20T00:53:12.414Z,18.31
2023-11-20T00:54:12.442Z,18.46
2023-11-20T00:55:12.664Z,18.12
2023-11-20T00:56:12.396Z,18.33
2023-11-20T00:57:12.370Z,18.37
2023-11-20T00:58:12.447Z,18.68
2023-11-20T00:59:12.338Z,18.73
2023-11-20T01:00:12.338Z,18.65
2023-11-20T01:01:12.423Z,18.59
2023-11-20T01:02:12.457Z,18.21
2023-11-20T01:03:12.565Z,18.52
2023-11-20T01:04:12.514Z,18.59
2023-11-20T01:05:12.294Z,18.50
2023-11-20T01:06:12.281Z,18.57
2023-11-20T01:07:12.356Z,18.25
2023-11-20T01:08:12.383Z,18.21
2023-11-20T01:09:12.205Z,18.29
2023-11-20T01:10:12.287Z,18.28
2023-11-20T01:11:12.174Z,17.97
2023-11-20T01:12:12.281Z,18.07
2023-11-20T01:13:12.266Z,18.19
2023-11-20T01:14:12.146Z,18.12
2023-11-20T01:15:12.202Z,18.46
2023-11-20T01:16:12.221Z,18.31
2023-11-20T01:17:12.145Z,18.55
2023-11-20T01:18:12.169Z,18.54
2023-11-20T01:19:12.179Z,18.36
2023-11-20T01:20:12.347Z,18.29
2023-11-20T01:21:12.062Z,18.17
2023-11-20T01:22:12.235Z,18.31
2023-11-20T01:23:12.051Z,18.49
2023-11-20T01:24:12.017Z,18.76
2023-11-20T01:25:12.158Z,18.67
2023-11-20T01:26:11.988Z,18.62
2023-11-20T01:27:12.080Z,18.54
2023-11-20T01:28:11.986Z,18.76
2023-11-20T01:29:11.972Z,18.70
2023-11-20T01:30:12.055Z,18.72
2023-11-20T01:31:11.983Z,18.62
2023-11-20T01:32:11.888Z,18.61
2023-11-20T01:33:15.266Z,18.04
2023-11-20T01:34:11.982Z,18.22
2023-11-20T01:35:11.946Z,18.49
2023-11-20T01:36:11.806Z,18.47
2023-11-20T01:37:11.909Z,18.65
2023-11-20T01:38:11.865Z,18.68
2023-11-20T01:39:11.804Z,18.31
2023-11-20T01:40:11.799Z,18.21
2023-11-20T01:41:11.973Z,18.07
2023-11-20T01:42:11.794Z,18.49
2023-11-20T01:43:11.799Z,18.62
2023-11-20T01:44:12.399Z,18.36
2023-11-20T01:45:11.923Z,18.37
2023-11-20T01:46:11.778Z,18.70
2023-11-20T01:47:11.810Z,18.68
2023-11-20T01:48:11.734Z,18.77
2023-11-20T01:49:11.867Z,18.76
2023-11-20T01:50:11.697Z,18.58
2023-11-20T01:51:11.749Z,18.91
2023-11-20T01:52:11.644Z,19.29
2023-11-20T01:54:02.408Z,19.33
2023-11-20T01:54:12.674Z,18.07
2023-11-20T01:55:11.789Z,18.49
2023-11-20T01:56:11.614Z,18.68
2023-11-20T01:57:11.585Z,18.61
2023-11-20T01:58:11.648Z,18.82
2023-11-20T01:59:11.793Z,18.90
2023-11-20T02:00:11.612Z,18.72
2023-11-20T02:01:11.726Z,19.02
2023-11-20T02:02:11.563Z,19.02
2023-11-20T02:03:11.722Z,18.74
2023-11-20T02:04:11.593Z,18.34
2023-11-20T02:05:11.554Z,18.50
2023-11-20T02:06:11.430Z,18.64
2023-11-20T02:07:11.472Z,18.68
2023-11-20T02:08:11.531Z,18.68
2023-11-20T02:09:11.514Z,18.62
2023-11-20T02:10:11.550Z,18.55
2023-11-20T02:11:11.494Z,18.52
2023-11-20T02:12:11.341Z,18.50
2023-11-20T02:13:11.430Z,18.94
2023-11-20T02:14:11.376Z,19.06
2023-11-20T02:15:11.340Z,18.86
2023-11-20T02:16:11.398Z,18.90
2023-11-20T02:17:11.414Z,18.97
2023-11-20T02:18:11.296Z,18.40
2023-11-20T02:19:11.353Z,18.42
2023-11-20T02:20:11.291Z,18.46
2023-11-20T02:21:11.390Z,18.24
2023-11-20T02:22:11.367Z,18.44
2023-11-20T02:23:11.351Z,18.68
2023-11-20T02:24:11.224Z,18.73
2023-11-20T02:25:11.238Z,18.92
2023-11-20T02:26:11.208Z,18.70
2023-11-20T02:27:11.230Z,18.70
2023-11-20T02:28:11.234Z,18.98
2023-11-20T02:29:11.246Z,19.01
2023-11-20T02:30:11.195Z,18.98
2023-11-20T02:31:11.301Z,18.70
2023-11-20T02:32:11.081Z,18.64
2023-11-20T02:33:11.099Z,18.61
2023-11-20T02:34:11.127Z,18.46
2023-11-20T02:35:11.133Z,18.07
2023-11-20T02:36:11.109Z,17.87
2023-11-20T02:37:11.108Z,18.07
2023-11-20T02:38:10.999Z,17.88
2023-11-20T02:39:11.032Z,17.81
2023-11-20T02:40:11.070Z,17.97
2023-11-20T02:41:11.019Z,18.25
2023-11-20T02:42:33.970Z,18.28
2023-11-20T02:43:12.077Z,18.04
2023-11-20T02:44:10.931Z,18.22
2023-11-20T02:45:10.990Z,18.37
2023-11-20T02:46:10.921Z,18.49
2023-11-20T02:47:11.040Z,18.61
2023-11-20T02:48:10.902Z,18.65
2023-11-20T02:49:11.001Z,18.61
2023-11-20T02:50:10.886Z,18.83
2023-11-20T02:51:10.891Z,18.31
2023-11-20T02:52:10.879Z,18.29
2023-11-20T02:53:10.944Z,18.07
2023-11-20T02:54:10.808Z,17.92
2023-11-20T02:55:10.851Z,18.06
2023-11-20T02:56:10.992Z,18.04
2023-11-20T02:57:10.800Z,18.07
2023-11-20T02:58:10.854Z,18.03
2023-11-20T02:59:10.904Z,18.18
2023-11-20T03:00:10.888Z,18.18
2023-11-20T03:01:10.825Z,18.34
2023-11-20T03:02:10.843Z,18.36
2023-11-20T03:03:10.796Z,18.59
2023-11-20T03:04:10.673Z,18.44
2023-11-20T03:05:10.738Z,18.46
2023-11-20T03:06:10.649Z,18.21
2023-11-20T03:07:10.754Z,18.33
2023-11-20T03:08:10.606Z,18.61
2023-11-20T03:09:10.647Z,18.50
2023-11-20T03:10:10.651Z,18.59
2023-11-20T03:11:13.532Z,18.42
2023-11-20T03:12:10.583Z,18.29
2023-11-20T03:13:10.667Z,18.04
2023-11-20T03:14:10.625Z,18.13
2023-11-20T03:15:10.707Z,18.03
2023-11-20T03:16:10.684Z,18.07
2023-11-20T03:17:19.814Z,18.10
2023-11-20T03:18:19.055Z,18.52
2023-11-20T03:19:18.092Z,18.97
2023-11-20T03:20:20.082Z,19.29
2023-11-20T03:21:19.062Z,19.24
2023-11-20T03:22:20.777Z,18.90
2023-11-20T03:23:17.927Z,18.97
2023-11-20T03:24:18.898Z,18.76
2023-11-20T03:25:18.999Z,19.28
2023-11-20T03:26:10.443Z,18.52
2023-11-20T03:27:10.465Z,18.25
2023-11-20T03:28:10.439Z,17.99
2023-11-20T03:29:10.412Z,17.97
2023-11-20T03:30:10.380Z,18.17
2023-11-20T03:31:10.493Z,18.07
2023-11-20T03:32:10.332Z,18.22
2023-11-20T03:33:19.456Z,18.73
2023-11-20T03:34:17.766Z,18.57
2023-11-20T03:35:17.851Z,18.65
2023-11-20T03:36:10.276Z,18.47
2023-11-20T03:37:10.345Z,18.24
2023-11-20T03:38:10.312Z,18.06
2023-11-20T03:39:10.337Z,18.10
2023-11-20T03:40:10.239Z,18.13
2023-11-20T03:41:10.332Z,18.42
2023-11-20T03:42:10.211Z,18.34
2023-11-20T03:43:10.260Z,18.22
2023-11-20T03:44:10.159Z,18.28
2023-11-20T03:45:10.218Z,18.34
2023-11-20T03:46:10.267Z,18.27
2023-11-20T03:47:10.270Z,18.25
2023-11-20T03:48:10.076Z,18.12
2023-11-20T03:49:10.175Z,18.40
2023-11-20T03:50:10.291Z,18.29
2023-11-20T03:51:10.082Z,18.37
2023-11-20T03:52:10.061Z,18.22
2023-11-20T03:53:10.092Z,18.24
2023-11-20T03:54:10.002Z,18.33
2023-11-20T03:55:10.158Z,18.54
2023-11-20T03:56:10.060Z,18.40
2023-11-20T03:57:09.985Z,18.29
2023-11-20T03:58:10.045Z,18.33
2023-11-20T03:59:10.106Z,18.44
2023-11-20T04:00:10.626Z,18.55
2023-11-20T04:01:10.050Z,18.24
2023-11-20T04:02:09.893Z,18.12
2023-11-20T04:03:09.991Z,18.03
2023-11-20T04:04:09.996Z,17.91
2023-11-20T04:05:09.891Z,17.84
2023-11-20T04:06:09.906Z,17.71
2023-11-20T04:07:14.780Z,17.81
2023-11-20T04:08:09.806Z,18.03
2023-11-20T04:09:09.890Z,18.09
2023-11-20T04:10:09.812Z,18.06
2023-11-20T04:11:09.888Z,18.06
2023-11-20T04:12:09.805Z,18.07
2023-11-20T04:13:09.819Z,18.15
2023-11-20T04:14:09.728Z,18.29
2023-11-20T04:15:09.767Z,18.29
2023-11-20T04:16:09.804Z,18.17
2023-11-20T04:17:09.824Z,18.09
2023-11-20T04:18:09.802Z,18.03
2023-11-20T04:19:09.755Z,17.81
2023-11-20T04:20:09.799Z,17.99
2023-11-20T04:21:09.742Z,18.24
2023-11-20T04:22:09.836Z,18.36
2023-11-20T04:23:09.780Z,18.50
2023-11-20T04:24:09.738Z,18.44
2023-11-20T04:25:09.708Z,18.22
2023-11-20T04:26:09.592Z,18.28
2023-11-20T04:27:09.579Z,18.21
2023-11-20T04:28:09.787Z,18.28
2023-11-20T04:29:09.703Z,18.06
2023-11-20T04:30:09.555Z,18.36
2023-11-20T04:31:09.899Z,18.28
2023-11-20T04:32:09.652Z,18.29
2023-11-20T04:33:09.511Z,18.00
2023-11-20T04:34:09.485Z,18.29
2023-11-20T04:35:09.662Z,18.44
2023-11-20T04:36:09.518Z,18.06
2023-11-20T04:37:09.568Z,18.06
2023-11-20T04:38:09.420Z,18.13
2023-11-20T04:39:09.471Z,18.06
2023-11-20T04:40:09.585Z,17.92
2023-11-20T04:41:09.458Z,18.02
2023-11-20T04:42:09.361Z,17.95
2023-11-20T04:43:09.413Z,18.25
2023-11-20T04:44:09.477Z,17.97
2023-11-20T04:45:09.382Z,17.99
2023-11-20T04:46:09.399Z,18.00
2023-11-20T04:47:09.364Z,17.91
2023-11-20T04:48:09.293Z,17.78
2023-11-20T04:49:09.437Z,17.92
2023-11-20T04:50:09.309Z,18.10
2023-11-20T04:51:09.362Z,18.09
2023-11-20T04:52:09.347Z,18.25
2023-11-20T04:53:09.253Z,18.24
2023-11-20T04:54:09.372Z,18.06
2023-11-20T04:55:09.336Z,17.84
2023-11-20T04:56:09.248Z,17.81
2023-11-20T04:57:09.238Z,17.84
2023-11-20T04:58:09.349Z,18.10
2023-11-20T04:59:09.152Z,18.36
2023-11-20T05:00:09.255Z,18.18
2023-11-20T05:01:09.210Z,18.02
2023-11-20T05:02:09.273Z,17.94
2023-11-20T05:03:09.180Z,18.03
2023-11-20T05:04:09.260Z,18.18
2023-11-20T05:05:09.085Z,17.89
2023-11-20T05:06:09.157Z,18.04
2023-11-20T05:07:09.081Z,18.27
2023-11-20T05:08:09.029Z,18.39
2023-11-20T05:09:09.033Z,18.49
2023-11-20T05:10:09.067Z,18.44
2023-11-20T05:11:08.960Z,18.61
2023-11-20T05:12:09.041Z,18.72
2023-11-20T05:13:08.961Z,18.70
2023-11-20T05:14:08.950Z,18.54
2023-11-20T05:15:08.938Z,18.31
2023-11-20T05:16:09.052Z,18.18
2023-11-20T05:17:08.943Z,18.19
2023-11-20T05:18:09.024Z,18.09
2023-11-20T05:19:08.892Z,17.79
2023-11-20T05:20:08.885Z,17.99
2023-11-20T05:21:08.848Z,18.13
2023-11-20T05:22:08.952Z,18.40
2023-11-20T05:23:08.848Z,18.15
2023-11-20T05:24:08.891Z,17.94
2023-11-20T05:25:08.860Z,18.10
2023-11-20T05:26:08.801Z,18.18
2023-11-20T05:27:08.802Z,18.25
2023-11-20T05:28:08.881Z,18.06
2023-11-20T05:29:08.763Z,18.10
2023-11-20T05:30:08.773Z,18.03
2023-11-20T05:31:08.793Z,18.18
2023-11-20T05:32:08.902Z,18.25
2023-11-20T05:33:08.843Z,18.09
2023-11-20T05:34:08.775Z,17.92
2023-11-20T05:35:08.691Z,18.09
2023-11-20T05:36:08.725Z,18.19
2023-11-20T05:37:08.783Z,18.09
2023-11-20T05:38:08.672Z,18.29
2023-11-20T05:39:08.618Z,18.15
2023-11-20T05:40:08.792Z,18.28
2023-11-20T05:41:08.573Z,18.15
2023-11-20T05:42:08.621Z,17.95
2023-11-20T05:43:08.650Z,18.06
2023-11-20T05:44:08.645Z,17.95
2023-11-20T05:45:08.515Z,17.94
2023-11-20T05:46:08.719Z,18.15
2023-11-20T05:47:08.564Z,18.10
2023-11-20T05:48:08.650Z,18.17
2023-11-20T05:49:08.557Z,18.09
2023-11-20T05:50:08.499Z,17.95
2023-11-20T05:51:08.456Z,18.15
2023-11-20T05:52:08.489Z,17.92
2023-11-20T05:53:08.514Z,18.19
2023-11-20T05:54:08.576Z,18.24
2023-11-20T05:55:08.408Z,18.28
2023-11-20T05:56:08.412Z,17.87
2023-11-20T05:57:08.514Z,17.53
2023-11-20T05:58:08.484Z,17.85
2023-11-20T05:59:08.341Z,17.97
2023-11-20T06:00:08.468Z,18.06
2023-11-20T06:01:08.367Z,18.18
2023-11-20T06:02:08.412Z,18.25
2023-11-20T06:03:08.382Z,18.04
2023-11-20T06:04:08.364Z,18.12
2023-11-20T06:05:10.214Z,17.84
2023-11-20T06:06:08.510Z,17.89
2023-11-20T06:07:08.459Z,17.67
2023-11-20T06:08:08.295Z,17.74
2023-11-20T06:09:08.281Z,17.63
2023-11-20T06:10:08.433Z,17.92
2023-11-20T06:11:08.237Z,18.07
2023-11-20T06:12:08.236Z,18.07
2023-11-20T06:13:08.250Z,18.02
2023-11-20T06:14:08.277Z,18.12
2023-11-20T06:15:08.136Z,18.03
2023-11-20T06:16:08.261Z,17.84
2023-11-20T06:17:08.156Z,17.70
2023-11-20T06:18:08.196Z,17.79
2023-11-20T06:19:08.079Z,17.81
2023-11-20T06:20:08.078Z,17.99
2023-11-20T06:21:08.113Z,17.97
2023-11-20T06:22:08.284Z,17.95
2023-11-20T06:23:08.080Z,17.82
2023-11-20T06:24:08.045Z,17.84
2023-11-20T06:25:08.144Z,18.18
2023-11-20T06:26:08.083Z,18.21
2023-11-20T06:27:08.153Z,18.40
2023-11-20T06:28:08.103Z,18.57
2023-11-20T06:29:08.063Z,18.52
2023-11-20T06:30:08.065Z,18.15
2023-11-20T06:31:07.992Z,18.02
2023-11-20T06:32:08.250Z,17.73
2023-11-20T06:33:07.902Z,17.66
2023-11-20T06:34:08.028Z,17.91
2023-11-20T06:35:07.874Z,18.15
2023-11-20T06:36:07.989Z,18.29
2023-11-20T06:37:07.864Z,18.34
2023-11-20T06:38:07.840Z,18.19
2023-11-20T06:39:07.965Z,18.25
2023-11-20T06:40:07.990Z,18.02
2023-11-20T06:41:07.801Z,18.12
2023-11-20T06:42:07.807Z,18.02
2023-11-20T06:43:07.935Z,17.71
2023-11-20T06:44:07.791Z,17.88
2023-11-20T06:45:07.711Z,18.00
2023-11-20T06:46:07.864Z,18.10
2023-11-20T06:47:07.767Z,18.12
2023-11-20T06:48:07.852Z,18.15
2023-11-20T06:49:07.742Z,18.33
2023-11-20T06:50:07.682Z,18.33
2023-11-20T06:51:07.653Z,18.06
2023-11-20T06:52:07.833Z,18.09
2023-11-20T06:53:07.658Z,18.03
2023-11-20T06:54:07.706Z,18.17
2023-11-20T06:55:08.531Z,18.18
2023-11-20T06:56:07.650Z,18.28
2023-11-20T06:57:07.562Z,18.33
2023-11-20T06:58:07.714Z,18.13
2023-11-20T06:59:07.538Z,18.31
2023-11-20T07:00:07.630Z,18.04
2023-11-20T07:01:07.557Z,18.13
2023-11-20T07:02:07.567Z,18.03
2023-11-20T07:03:07.540Z,18.18
2023-11-20T07:04:07.593Z,17.87
2023-11-20T07:05:07.579Z,18.04
2023-11-20T07:06:07.567Z,17.97
2023-11-20T07:07:07.541Z,18.09
2023-11-20T07:08:07.494Z,17.81
2023-11-20T07:09:07.428Z,17.55
2023-11-20T07:10:07.460Z,17.25
2023-11-20T07:11:07.380Z,17.26
2023-11-20T07:12:07.435Z,17.28
2023-11-20T07:13:07.575Z,17.46
2023-11-20T07:14:07.416Z,17.69
2023-11-20T07:15:07.336Z,17.63
2023-11-20T07:16:07.400Z,17.66
2023-11-20T07:17:07.424Z,17.70
2023-11-20T07:18:07.483Z,17.67
2023-11-20T07:19:07.384Z,17.63
2023-11-20T07:20:07.323Z,17.64
2023-11-20T07:21:07.397Z,17.69
2023-11-20T07:22:07.346Z,17.64
2023-11-20T07:23:07.246Z,17.57
2023-11-20T07:24:07.285Z,17.47
2023-11-20T07:25:07.453Z,17.57
2023-11-20T07:26:07.278Z,17.71
2023-11-20T07:27:07.202Z,17.78
2023-11-20T07:28:07.297Z,17.69
2023-11-20T07:29:56.257Z,17.76
2023-11-20T07:30:08.268Z,16.75
2023-11-20T07:31:07.249Z,17.26
2023-11-20T07:32:07.286Z,17.57
2023-11-20T07:33:07.199Z,17.50
2023-11-20T07:34:07.241Z,17.79
2023-11-20T07:35:07.074Z,18.12
2023-11-20T07:36:07.163Z,18.19
2023-11-20T07:37:07.126Z,17.91
2023-11-20T07:38:07.074Z,18.18
2023-11-20T07:39:07.184Z,17.84
2023-11-20T07:40:07.095Z,18.17
2023-11-20T07:41:07.018Z,17.89
2023-11-20T07:42:07.048Z,17.95
2023-11-20T07:43:07.178Z,17.91
2023-11-20T07:44:06.984Z,17.87
2023-11-20T07:45:07.021Z,17.87
2023-11-20T07:46:07.086Z,18.03
2023-11-20T07:47:06.952Z,18.09
2023-11-20T07:48:07.142Z,18.18
2023-11-20T07:49:06.935Z,18.19
2023-11-20T07:50:06.942Z,18.37
2023-11-20T07:51:06.930Z,18.36
2023-11-20T07:52:07.022Z,18.34
2023-11-20T07:53:06.884Z,17.88
2023-11-20T07:54:06.950Z,17.69
2023-11-20T07:55:06.858Z,17.84
2023-11-20T07:56:06.849Z,18.04
2023-11-20T07:57:06.928Z,18.21
2023-11-20T07:58:06.927Z,18.15
2023-11-20T07:59:06.779Z,17.91
2023-11-20T08:00:06.798Z,18.10
2023-11-20T08:01:06.808Z,18.09
2023-11-20T08:02:06.971Z,17.94
2023-11-20T08:03:06.813Z,17.87
2023-11-20T08:04:06.865Z,17.89
2023-11-20T08:05:06.980Z,18.10
2023-11-20T08:06:16.857Z,18.37
2023-11-20T08:07:07.665Z,18.34
2023-11-20T08:08:06.912Z,18.28
2023-11-20T08:09:06.716Z,18.39
2023-11-20T08:10:07.274Z,18.49
2023-11-20T08:11:30.606Z,18.67
2023-11-20T08:12:07.684Z,18.28
2023-11-20T08:13:06.696Z,18.47
2023-11-20T08:14:06.682Z,18.68
2023-11-20T08:15:06.587Z,18.46
2023-11-20T08:16:06.715Z,18.28
2023-11-20T08:17:06.633Z,18.44
2023-11-20T08:18:06.610Z,18.28
2023-11-20T08:19:06.510Z,18.22
2023-11-20T08:20:06.591Z,18.31
2023-11-20T08:21:06.508Z,18.36
2023-11-20T08:22:06.490Z,18.49
2023-11-20T08:23:06.534Z,18.40
2023-11-20T08:24:06.469Z,18.34
2023-11-20T08:25:06.567Z,18.46
2023-11-20T08:26:06.518Z,18.59
2023-11-20T08:27:06.465Z,18.95
2023-11-20T08:28:06.525Z,19.13
2023-11-20T08:29:06.367Z,18.86
2023-11-20T08:30:06.710Z,18.90
2023-11-20T08:31:06.466Z,18.61
2023-11-20T08:32:06.390Z,18.43
2023-11-20T08:33:07.039Z,18.54
2023-11-20T08:34:06.498Z,18.50
2023-11-20T08:35:06.277Z,18.52
2023-11-20T08:36:06.302Z,18.76
2023-11-20T08:37:06.543Z,18.83
2023-11-20T08:38:06.305Z,18.82
2023-11-20T08:39:06.239Z,18.70
2023-11-20T08:40:06.285Z,18.70
2023-11-20T08:41:06.174Z,18.61
2023-11-20T08:42:06.207Z,18.33
2023-11-20T08:43:06.217Z,18.36
2023-11-20T08:44:06.257Z,18.47
2023-11-20T08:45:06.465Z,18.49
2023-11-20T08:46:12.903Z,18.67
2023-11-20T08:47:07.230Z,18.65
2023-11-20T08:48:06.247Z,18.82
2023-11-20T08:49:06.183Z,18.79
2023-11-20T08:50:06.171Z,18.67
2023-11-20T08:51:06.115Z,18.70
2023-11-20T08:52:08.387Z,18.68
2023-11-20T08:53:06.032Z,18.61
2023-11-20T08:54:06.141Z,18.70
2023-11-20T08:55:06.118Z,18.79
2023-11-20T08:56:06.091Z,18.43
2023-11-20T08:57:06.082Z,18.73
2023-11-20T08:58:06.068Z,18.62
2023-11-20T08:59:05.990Z,18.76
2023-11-20T09:00:06.126Z,18.91
2023-11-20T09:01:06.052Z,18.83
2023-11-20T09:02:05.971Z,18.98
2023-11-20T09:03:06.059Z,18.36
2023-11-20T09:04:06.078Z,18.27
2023-11-20T09:05:08.245Z,18.15
2023-11-20T09:06:05.879Z,18.18
2023-11-20T09:07:05.930Z,18.31
2023-11-20T09:08:05.824Z,18.22
2023-11-20T09:09:05.900Z,18.07
2023-11-20T09:10:05.861Z,18.10
2023-11-20T09:11:05.855Z,18.25
2023-11-20T09:12:05.801Z,18.09
2023-11-20T09:13:07.087Z,17.89
2023-11-20T09:14:05.796Z,17.79
2023-11-20T09:15:06.007Z,17.76
2023-11-20T09:16:05.817Z,17.99
2023-11-20T09:17:05.780Z,18.04
2023-11-20T09:18:05.826Z,18.44
2023-11-20T09:19:05.829Z,18.24
2023-11-20T09:20:05.669Z,18.22
2023-11-20T09:21:05.786Z,18.28
2023-11-20T09:22:05.753Z,18.22
2023-11-20T09:23:13.167Z,19.66
2023-11-20T09:24:05.618Z,19.15
2023-11-20T09:25:06.198Z,18.77
2023-11-20T09:26:05.575Z,18.57
2023-11-20T09:27:05.642Z,18.61
2023-11-20T09:28:05.624Z,18.73
2023-11-20T09:29:05.645Z,18.36
2023-11-20T09:30:05.551Z,18.37
2023-11-20T09:31:05.615Z,18.43
2023-11-20T09:32:05.644Z,18.65
2023-11-20T09:33:05.652Z,18.74
2023-11-20T09:34:05.615Z,18.86
2023-11-20T09:35:07.641Z,18.76
2023-11-20T09:36:05.570Z,18.34
2023-11-20T09:37:05.513Z,18.43
2023-11-20T09:38:05.439Z,18.73
2023-11-20T09:39:05.450Z,18.86
2023-11-20T09:40:05.428Z,18.49
2023-11-20T09:41:05.451Z,18.24
2023-11-20T09:42:05.573Z,18.36
2023-11-20T09:43:05.471Z,18.44
2023-11-20T09:44:05.403Z,18.57
2023-11-20T09:45:05.519Z,18.55
2023-11-20T09:46:05.390Z,18.57
2023-11-20T09:47:05.583Z,18.61
2023-11-20T09:48:05.493Z,18.76
2023-11-20T09:49:05.826Z,18.87
2023-11-20T09:50:05.416Z,18.97
2023-11-20T09:51:12.225Z,19.39
2023-11-20T09:52:06.324Z,19.43
2023-11-20T09:53:05.305Z,19.31
2023-11-20T09:54:05.279Z,18.95
2023-11-20T09:55:05.333Z,18.92
2023-11-20T09:56:05.199Z,18.74
2023-11-20T09:57:05.240Z,18.59
2023-11-20T09:58:05.272Z,18.50
2023-11-20T09:59:05.208Z,18.42
2023-11-20T10:00:05.164Z,18.62
2023-11-20T10:01:05.166Z,18.77
2023-11-20T10:02:05.247Z,19.14
2023-11-20T10:03:05.225Z,19.08
2023-11-20T10:04:05.197Z,19.14
2023-11-20T10:05:05.197Z,19.14
2023-11-20T10:06:05.162Z,19.38
2023-11-20T10:07:05.257Z,19.10
2023-11-20T10:08:05.101Z,19.02
2023-11-20T10:09:05.127Z,18.97
2023-11-20T10:10:05.139Z,19.13
2023-11-20T10:11:05.044Z,18.91
2023-11-20T10:12:05.019Z,19.11
2023-11-20T10:13:05.023Z,19.02
2023-11-20T10:14:04.951Z,18.59
2023-11-20T10:15:04.998Z,18.65
2023-11-20T10:16:05.214Z,18.91
2023-11-20T10:17:04.970Z,18.72
2023-11-20T10:18:04.936Z,18.36
2023-11-20T10:19:04.937Z,18.15
2023-11-20T10:20:04.900Z,18.39
2023-11-20T10:21:04.980Z,18.46
2023-11-20T10:22:04.870Z,18.54
2023-11-20T10:23:04.871Z,18.34
2023-11-20T10:24:04.856Z,17.97
2023-11-20T10:25:04.917Z,17.88
2023-11-20T10:26:04.847Z,18.07
2023-11-20T10:27:04.988Z,18.13
2023-11-20T10:28:04.820Z,17.91
2023-11-20T10:29:04.784Z,18.03
2023-11-20T10:30:04.837Z,17.87
2023-11-20T10:31:04.804Z,18.03
2023-11-20T10:32:04.965Z,17.89
2023-11-20T10:33:04.826Z,18.00
2023-11-20T10:34:04.720Z,17.87
2023-11-20T10:35:06.240Z,18.15
2023-11-20T10:36:04.685Z,18.55
2023-11-20T10:37:04.712Z,18.70
2023-11-20T10:38:04.629Z,18.77
2023-11-20T10:39:04.780Z,18.52
2023-11-20T10:40:04.758Z,18.58
2023-11-20T10:41:04.649Z,18.44
2023-11-20T10:42:04.629Z,18.52
2023-11-20T10:43:04.615Z,18.64
2023-11-20T10:44:04.592Z,18.65
2023-11-20T10:45:04.645Z,18.65
2023-11-20T10:46:04.570Z,18.47
2023-11-20T10:47:08.648Z,18.49
2023-11-20T10:48:04.539Z,18.42
2023-11-20T10:49:04.555Z,18.59
2023-11-20T10:50:04.506Z,18.43
2023-11-20T10:51:04.547Z,18.06
2023-11-20T10:52:04.518Z,17.63
2023-11-20T10:53:04.508Z,17.82
2023-11-20T10:54:04.485Z,17.92
2023-11-20T10:55:04.468Z,18.15
2023-11-20T10:56:04.423Z,18.21
2023-11-20T10:57:04.756Z,18.24
2023-11-20T10:58:04.424Z,18.36
2023-11-20T10:59:04.439Z,18.57
2023-11-20T11:00:04.556Z,18.67
2023-11-20T11:01:04.504Z,18.44
2023-11-20T11:02:04.540Z,18.29
2023-11-20T11:03:12.516Z,18.27
2023-11-20T11:04:05.519Z,18.34
2023-11-20T11:05:04.329Z,18.10
2023-11-20T11:06:04.406Z,18.06
2023-11-20T11:07:04.343Z,18.15
2023-11-20T11:08:04.329Z,18.21
2023-11-20T11:09:04.384Z,18.04
2023-11-20T11:10:04.273Z,18.00
2023-11-20T11:11:04.353Z,17.81
2023-11-20T11:12:04.203Z,18.02
2023-11-20T11:13:04.247Z,17.94
2023-11-20T11:14:04.179Z,17.97
2023-11-20T11:15:04.335Z,18.07
2023-11-20T11:16:04.165Z,18.54
2023-11-20T11:17:04.167Z,18.49
2023-11-20T11:18:04.164Z,18.80
2023-11-20T11:19:04.198Z,18.57
2023-11-20T11:20:04.324Z,17.87
2023-11-20T11:21:04.256Z,17.97
2023-11-20T11:22:04.067Z,18.37
2023-11-20T11:23:05.820Z,18.47
2023-11-20T11:24:04.098Z,18.36
2023-11-20T11:25:04.270Z,18.09
2023-11-20T11:26:04.120Z,18.06
2023-11-20T11:27:04.154Z,18.52
2023-11-20T11:28:04.099Z,18.62
2023-11-20T11:29:04.013Z,18.27
2023-11-20T11:30:03.994Z,18.07
2023-11-20T11:31:04.259Z,18.37
2023-11-20T11:32:04.119Z,18.79
2023-11-20T11:33:04.080Z,19.06
2023-11-20T11:34:04.021Z,19.05
2023-11-20T11:35:03.908Z,18.77
2023-11-20T11:36:03.897Z,18.27
2023-11-20T11:37:03.924Z,18.17
2023-11-20T11:38:03.889Z,18.33
2023-11-20T11:39:03.992Z,18.98
2023-11-20T11:40:03.953Z,18.86
2023-11-20T11:41:03.824Z,18.83
2023-11-20T11:42:03.833Z,18.70
2023-11-20T11:43:03.803Z,18.65
2023-11-20T11:44:03.793Z,18.73
2023-11-20T11:45:03.986Z,18.57
2023-11-20T11:46:03.756Z,18.72
2023-11-20T11:47:03.806Z,18.34
2023-11-20T11:48:03.834Z,18.49
2023-11-20T11:49:03.807Z,18.91
2023-11-20T11:50:05.429Z,18.84
2023-11-20T11:51:03.752Z,18.49
2023-11-20T11:52:03.710Z,18.67
2023-11-20T11:53:03.734Z,18.61
2023-11-20T11:54:03.606Z,18.46
2023-11-20T11:55:03.742Z,18.31
2023-11-20T11:56:03.625Z,18.21
2023-11-20T11:57:03.721Z,18.40
2023-11-20T11:58:03.921Z,18.55
2023-11-20T11:59:03.659Z,18.65
2023-11-20T12:00:03.636Z,18.83
2023-11-20T12:01:03.587Z,18.59
2023-11-20T12:02:03.533Z,18.39
2023-11-20T12:03:03.720Z,18.57
2023-11-20T12:04:03.687Z,18.10
2023-11-20T12:05:03.780Z,18.15
2023-11-20T12:06:03.510Z,18.40
2023-11-20T12:07:03.678Z,18.72
2023-11-20T12:08:03.622Z,18.76
2023-11-20T12:09:03.637Z,18.62
2023-11-20T12:10:03.492Z,18.44
2023-11-20T12:11:03.570Z,18.52
2023-11-20T12:12:03.475Z,18.54
2023-11-20T12:13:03.697Z,18.61
2023-11-20T12:14:03.389Z,18.77
2023-11-20T12:15:03.474Z,18.95
2023-11-20T12:16:03.438Z,19.17
2023-11-20T12:17:03.502Z,19.11
2023-11-20T12:18:03.598Z,19.01
2023-11-20T12:19:03.438Z,18.97
2023-11-20T12:20:03.298Z,19.06
2023-11-20T12:21:03.283Z,18.74
2023-11-20T12:22:03.346Z,18.73
2023-11-20T12:23:03.235Z,18.40
2023-11-20T12:24:03.219Z,18.17
2023-11-20T12:25:03.242Z,18.47
2023-11-20T12:26:03.170Z,18.82
2023-11-20T12:27:03.196Z,18.91
2023-11-20T12:28:03.249Z,19.24
2023-11-20T12:29:03.199Z,19.01
2023-11-20T12:30:03.282Z,18.80
2023-11-20T12:31:03.168Z,18.50
2023-11-20T12:32:05.095Z,18.62
2023-11-20T12:33:03.255Z,18.34
2023-11-20T12:34:03.226Z,18.37
2023-11-20T12:35:03.157Z,18.59
2023-11-20T12:36:03.168Z,18.77
2023-11-20T12:37:03.192Z,19.02
2023-11-20T12:38:03.043Z,18.72
2023-11-20T12:39:03.035Z,18.82
2023-11-20T12:40:03.025Z,19.15
2023-11-20T12:41:03.053Z,19.18
2023-11-20T12:42:03.167Z,18.82
2023-11-20T12:43:03.074Z,18.79
2023-11-20T12:44:02.938Z,18.80
2023-11-20T12:45:02.957Z,18.58
2023-11-20T12:46:02.955Z,18.44
2023-11-20T12:47:03.055Z,18.19
2023-11-20T12:48:02.984Z,18.29
2023-11-20T12:49:02.921Z,18.19
2023-11-20T12:50:02.909Z,18.37
2023-11-20T12:51:03.053Z,18.29
2023-11-20T12:52:02.909Z,18.22